AirNav   TITAN Aviation Fuels
 
 1161 users online  

MN98 Donner Airport
Belview, Minnesota, USA

GOING TO BELVIEW?


FAA INFORMATION EFFECTIVE 01 DECEMBER 2022

Location

FAA Identifier: MN98
Lat/Long: 44-38-50.3250N 095-18-17.7000W
44-38.838750N 095-18.295000W
44.6473125,-95.3049167
(estimated)
Elevation: 1050 ft. / 320 m (estimated)
From city: 3 miles NNE of BELVIEW, MN
Time zone: UTC -6 (UTC -5 during Daylight Saving Time)
Zip code: 56237

Airport Operations

Airport use: Private use. Permission required prior to landing
Activation date: 02/2020
Control tower: no
ARTCC: MINNEAPOLIS CENTER
FSS: PRINCETON FLIGHT SERVICE STATION
NOTAMs facility: PNM (NOTAM-D service not available)
Attendance: 
Segmented circle: no

Airport Communications

WX ASOS at RWF (11 nm SE): 126.575 (507-644-3564)
WX AWOS-3 at GDB (12 nm NW): 120.1 (320-564-9388)
WX AWOS-3 at OVL (14 nm NE): 119.275 (320-523-5924)

Nearby radio navigation aids

VOR radial/distance  VOR name  Freq  Var
RWFr318/13.2REDWOOD FALLS VOR/DME113.3007E
MMLr057/25.2MARSHALL VOR/DME111.0005E
MVEr133/26.1MONTEVIDEO VOR/DME111.6005E
BDHr191/29.2WILLMAR VOR/DME113.7004E

Airport Services

Runway Information

Runway 18/36

Dimensions: 2900 x 140 ft. / 884 x 43 m
Surface: turf
RUNWAY 18  RUNWAY 36
Latitude: 44-39.077500N44-38.600000N
Longitude: 095-18.291667W095-18.298333W
Elevation: 1050.0 ft.1050.0 ft.
Traffic pattern: leftleft
Touchdown point: yes, no lightsyes, no lights

Airport Ownership and Management from official FAA records

Ownership: Privately-owned
Owner: BOB DONNER
23715 410TH STREET
BELVIEW, MN 56214
Phone 507-430-5114
Manager: BOB DONNER
23715 410TH STREET
BELVIEW, MN 56214
Phone 507-430-5114
EMAIL ADDRESS: DONNERAERIAL@HOTMAIL.COM

Airport Operational Statistics

Aircraft based on the field: 1
Single engine airplanes: 1
    

Instrument Procedures

There are no published instrument procedures at MN98.

Some nearby airports with instrument procedures:

KRWF - Redwood Falls Municipal Airport (11 nm SE)
KGDB - Granite Falls Municipal Airport/Lenzen-Roe-Fagen Memorial Field (12 nm NW)
KOVL - Olivia Regional Airport (14 nm NE)
KMML - Southwest Minnesota Regional Airport - Marshall/Ryan Field (25 nm SW)
KMVE - Montevideo-Chippewa County Airport (26 nm NW)
 
Loc | Ops | Rwys | IFR | FBO | Links
Com | Nav | Svcs | Stats | Notes
Aerial photo
No photo
 
Airport distance calculator
Flying to Donner Airport? Find the distance to fly.

From to MN98

Sunrise and sunset
Times for 03-Dec-2022
 Local
(UTC-6)
 Zulu
(UTC)
Morning civil twilight07:0813:08
Sunrise07:4113:41
Sunset16:4122:41
Evening civil twilight17:1423:14

Current date and time
Zulu (UTC)  04-Dec-2022 01:52:38
Local (UTC-6)  03-Dec-2022 19:52:38
 
METAR
KRWF 
11nm SE 
040053Z AUTO 13004KT 10SM CLR M11/M14 A3024 RMK AO2 SLP266 T11061139 $
KGDB 
12nm NW 
040135Z AUTO 15006KT 10SM CLR M09/M11 A3022 RMK AO2 T10901114
KOVL 
14nm NE 
040135Z AUTO 14005KT 10SM CLR M11/M13 A3021 RMK AO2
TAF
KRWF 
11nm SE 
032117Z 0321/0418 18007KT P6SM SKC FM040600 25008KT P6SM SKC
NOTAMs
Click for the latest NOTAMs
NOTAMs are issued by the DoD/FAA and will open in a separate window not controlled by AirNav.

 

 
 

Would you like to see your business listed on this page?

 If your business provides an interesting product or service to pilots, flight crews, aircraft, or users of the Donner Airport, you should consider listing it here.  To start the listing process, click on the button below
 
Add a business
 

Other Pages about Donner Airport

Update a link
 
Copyright © AirNav, LLC. All rights reserved. Privacy Policy  Contact